sensor_id;sensor_type;location;lat;lon;timestamp;P1;durP1;ratioP1;P2;durP2;ratioP2
75437;SDS011;64015;49.392;15.582;2024-01-07T00:00:00;18.48;;;8.98;;
75437;SDS011;64015;49.392;15.582;2024-01-07T00:02:26;19.83;;;8.70;;
75437;SDS011;64015;49.392;15.582;2024-01-07T00:04:52;16.27;;;8.15;;
75437;SDS011;64015;49.392;15.582;2024-01-07T00:07:18;21.23;;;8.85;;
75437;SDS011;64015;49.392;15.582;2024-01-07T00:09:45;19.63;;;8.77;;
75437;SDS011;64015;49.392;15.582;2024-01-07T00:12:11;20.10;;;9.73;;
75437;SDS011;64015;49.392;15.582;2024-01-07T00:14:37;19.20;;;8.90;;
75437;SDS011;64015;49.392;15.582;2024-01-07T00:17:03;21.50;;;8.98;;
75437;SDS011;64015;49.392;15.582;2024-01-07T00:19:29;19.55;;;8.23;;
75437;SDS011;64015;49.392;15.582;2024-01-07T00:21:57;17.13;;;7.90;;
75437;SDS011;64015;49.392;15.582;2024-01-07T00:24:29;19.50;;;8.75;;
75437;SDS011;64015;49.392;15.582;2024-01-07T00:26:55;17.83;;;8.35;;
75437;SDS011;64015;49.392;15.582;2024-01-07T00:29:41;17.35;;;8.52;;
75437;SDS011;64015;49.392;15.582;2024-01-07T00:32:07;15.88;;;7.63;;
75437;SDS011;64015;49.392;15.582;2024-01-07T00:34:32;17.42;;;8.27;;
75437;SDS011;64015;49.392;15.582;2024-01-07T00:36:58;16.40;;;7.50;;
75437;SDS011;64015;49.392;15.582;2024-01-07T00:39:23;14.82;;;7.32;;
75437;SDS011;64015;49.392;15.582;2024-01-07T00:41:49;17.42;;;8.00;;
75437;SDS011;64015;49.392;15.582;2024-01-07T00:44:15;16.90;;;8.15;;
75437;SDS011;64015;49.392;15.582;2024-01-07T00:46:41;14.40;;;7.32;;
75437;SDS011;64015;49.392;15.582;2024-01-07T00:49:06;16.13;;;7.75;;
75437;SDS011;64015;49.392;15.582;2024-01-07T00:51:32;16.50;;;7.60;;
75437;SDS011;64015;49.392;15.582;2024-01-07T00:53:57;16.17;;;7.18;;
75437;SDS011;64015;49.392;15.582;2024-01-07T00:56:26;15.88;;;7.35;;
75437;SDS011;64015;49.392;15.582;2024-01-07T00:58:52;15.05;;;7.15;;
75437;SDS011;64015;49.392;15.582;2024-01-07T01:01:18;18.77;;;8.48;;
75437;SDS011;64015;49.392;15.582;2024-01-07T01:03:43;17.05;;;8.02;;
75437;SDS011;64015;49.392;15.582;2024-01-07T01:06:09;14.80;;;7.25;;
75437;SDS011;64015;49.392;15.582;2024-01-07T01:08:34;12.57;;;5.97;;
75437;SDS011;64015;49.392;15.582;2024-01-07T01:11:00;15.63;;;7.40;;
75437;SDS011;64015;49.392;15.582;2024-01-07T01:13:26;13.88;;;6.75;;
75437;SDS011;64015;49.392;15.582;2024-01-07T01:15:52;15.07;;;6.80;;
75437;SDS011;64015;49.392;15.582;2024-01-07T01:18:17;14.13;;;6.63;;
75437;SDS011;64015;49.392;15.582;2024-01-07T01:20:46;14.18;;;6.45;;
75437;SDS011;64015;49.392;15.582;2024-01-07T01:23:12;13.85;;;6.57;;
75437;SDS011;64015;49.392;15.582;2024-01-07T01:25:37;12.50;;;6.82;;
75437;SDS011;64015;49.392;15.582;2024-01-07T01:28:05;12.82;;;6.18;;
75437;SDS011;64015;49.392;15.582;2024-01-07T01:30:31;13.32;;;5.93;;
75437;SDS011;64015;49.392;15.582;2024-01-07T01:32:57;11.88;;;6.38;;
75437;SDS011;64015;49.392;15.582;2024-01-07T01:35:23;14.82;;;6.45;;
75437;SDS011;64015;49.392;15.582;2024-01-07T01:37:48;9.50;;;5.50;;
75437;SDS011;64015;49.392;15.582;2024-01-07T01:40:16;15.07;;;7.30;;
75437;SDS011;64015;49.392;15.582;2024-01-07T01:42:45;15.48;;;7.18;;
75437;SDS011;64015;49.392;15.582;2024-01-07T01:45:41;13.82;;;6.22;;
75437;SDS011;64015;49.392;15.582;2024-01-07T01:48:07;13.18;;;5.90;;
75437;SDS011;64015;49.392;15.582;2024-01-07T01:50:39;14.55;;;6.43;;
75437;SDS011;64015;49.392;15.582;2024-01-07T01:53:05;9.82;;;5.47;;
75437;SDS011;64015;49.392;15.582;2024-01-07T01:55:31;10.65;;;5.82;;
75437;SDS011;64015;49.392;15.582;2024-01-07T01:57:57;9.63;;;5.10;;
75437;SDS011;64015;49.392;15.582;2024-01-07T02:00:29;11.73;;;5.20;;
75437;SDS011;64015;49.392;15.582;2024-01-07T02:02:55;12.55;;;5.53;;
75437;SDS011;64015;49.392;15.582;2024-01-07T02:05:21;13.27;;;6.47;;
75437;SDS011;64015;49.392;15.582;2024-01-07T02:07:48;8.35;;;4.20;;
75437;SDS011;64015;49.392;15.582;2024-01-07T02:10:14;9.40;;;4.95;;
75437;SDS011;64015;49.392;15.582;2024-01-07T02:12:40;9.68;;;4.47;;
75437;SDS011;64015;49.392;15.582;2024-01-07T02:15:06;9.32;;;4.55;;
75437;SDS011;64015;49.392;15.582;2024-01-07T02:17:32;9.90;;;4.72;;
75437;SDS011;64015;49.392;15.582;2024-01-07T02:19:58;9.20;;;5.05;;
75437;SDS011;64015;49.392;15.582;2024-01-07T02:22:23;8.48;;;3.97;;
75437;SDS011;64015;49.392;15.582;2024-01-07T02:24:49;7.22;;;4.75;;
75437;SDS011;64015;49.392;15.582;2024-01-07T02:27:15;10.02;;;4.63;;
75437;SDS011;64015;49.392;15.582;2024-01-07T02:29:40;8.02;;;4.35;;
75437;SDS011;64015;49.392;15.582;2024-01-07T02:32:06;8.98;;;4.45;;
75437;SDS011;64015;49.392;15.582;2024-01-07T02:34:32;7.78;;;4.55;;
75437;SDS011;64015;49.392;15.582;2024-01-07T02:36:57;6.68;;;3.85;;
75437;SDS011;64015;49.392;15.582;2024-01-07T02:39:23;12.13;;;4.57;;
75437;SDS011;64015;49.392;15.582;2024-01-07T02:41:50;8.55;;;4.78;;
75437;SDS011;64015;49.392;15.582;2024-01-07T02:44:28;9.90;;;4.68;;
75437;SDS011;64015;49.392;15.582;2024-01-07T02:46:53;8.82;;;4.22;;
75437;SDS011;64015;49.392;15.582;2024-01-07T02:49:19;10.18;;;4.50;;
75437;SDS011;64015;49.392;15.582;2024-01-07T02:51:45;8.25;;;4.20;;
75437;SDS011;64015;49.392;15.582;2024-01-07T02:54:14;7.72;;;3.75;;
75437;SDS011;64015;49.392;15.582;2024-01-07T02:56:40;8.60;;;4.47;;
75437;SDS011;64015;49.392;15.582;2024-01-07T02:59:06;9.35;;;4.13;;
75437;SDS011;64015;49.392;15.582;2024-01-07T03:01:32;6.88;;;4.10;;
75437;SDS011;64015;49.392;15.582;2024-01-07T03:03:57;10.35;;;4.07;;
75437;SDS011;64015;49.392;15.582;2024-01-07T03:06:26;8.25;;;3.70;;
75437;SDS011;64015;49.392;15.582;2024-01-07T03:08:52;8.18;;;4.32;;
75437;SDS011;64015;49.392;15.582;2024-01-07T03:11:18;6.45;;;3.50;;
75437;SDS011;64015;49.392;15.582;2024-01-07T03:13:43;8.35;;;3.80;;
75437;SDS011;64015;49.392;15.582;2024-01-07T03:19:09;7.28;;;3.47;;
75437;SDS011;64015;49.392;15.582;2024-01-07T03:21:35;7.82;;;3.65;;
75437;SDS011;64015;49.392;15.582;2024-01-07T03:24:00;9.07;;;4.53;;
75437;SDS011;64015;49.392;15.582;2024-01-07T03:26:29;7.95;;;4.13;;
75437;SDS011;64015;49.392;15.582;2024-01-07T03:29:10;8.95;;;4.10;;
75437;SDS011;64015;49.392;15.582;2024-01-07T03:31:36;7.85;;;3.85;;
75437;SDS011;64015;49.392;15.582;2024-01-07T03:34:02;7.25;;;3.50;;
75437;SDS011;64015;49.392;15.582;2024-01-07T03:36:27;8.02;;;3.72;;
75437;SDS011;64015;49.392;15.582;2024-01-07T03:38:56;7.03;;;3.42;;
75437;SDS011;64015;49.392;15.582;2024-01-07T03:41:22;8.80;;;4.10;;
75437;SDS011;64015;49.392;15.582;2024-01-07T03:43:47;8.23;;;3.75;;
75437;SDS011;64015;49.392;15.582;2024-01-07T03:46:14;5.10;;;2.80;;
75437;SDS011;64015;49.392;15.582;2024-01-07T03:48:40;9.68;;;3.55;;
75437;SDS011;64015;49.392;15.582;2024-01-07T03:51:07;7.93;;;3.80;;
75437;SDS011;64015;49.392;15.582;2024-01-07T03:53:35;4.18;;;2.97;;
75437;SDS011;64015;49.392;15.582;2024-01-07T03:56:00;6.18;;;3.70;;
75437;SDS011;64015;49.392;15.582;2024-01-07T03:58:26;6.05;;;2.85;;
75437;SDS011;64015;49.392;15.582;2024-01-07T04:00:52;4.93;;;2.80;;
75437;SDS011;64015;49.392;15.582;2024-01-07T04:03:18;6.38;;;2.97;;
75437;SDS011;64015;49.392;15.582;2024-01-07T04:05:52;7.13;;;3.63;;
75437;SDS011;64015;49.392;15.582;2024-01-07T04:08:18;8.18;;;3.25;;
75437;SDS011;64015;49.392;15.582;2024-01-07T04:10:44;6.80;;;3.70;;
75437;SDS011;64015;49.392;15.582;2024-01-07T04:13:10;7.03;;;3.45;;
75437;SDS011;64015;49.392;15.582;2024-01-07T04:15:36;7.70;;;3.80;;
75437;SDS011;64015;49.392;15.582;2024-01-07T04:18:02;4.38;;;2.90;;
75437;SDS011;64015;49.392;15.582;2024-01-07T04:20:29;6.05;;;3.88;;
75437;SDS011;64015;49.392;15.582;2024-01-07T04:22:55;6.40;;;3.08;;
75437;SDS011;64015;49.392;15.582;2024-01-07T04:25:22;7.50;;;2.92;;
75437;SDS011;64015;49.392;15.582;2024-01-07T04:27:48;8.63;;;3.08;;
75437;SDS011;64015;49.392;15.582;2024-01-07T04:30:14;6.88;;;3.67;;
75437;SDS011;64015;49.392;15.582;2024-01-07T04:32:39;5.53;;;2.67;;
75437;SDS011;64015;49.392;15.582;2024-01-07T04:35:05;7.05;;;3.65;;
75437;SDS011;64015;49.392;15.582;2024-01-07T04:37:32;7.07;;;2.72;;
75437;SDS011;64015;49.392;15.582;2024-01-07T04:40:04;6.45;;;3.15;;
75437;SDS011;64015;49.392;15.582;2024-01-07T04:42:30;6.00;;;3.53;;
75437;SDS011;64015;49.392;15.582;2024-01-07T04:44:56;8.77;;;3.55;;
75437;SDS011;64015;49.392;15.582;2024-01-07T04:47:29;7.78;;;3.50;;
75437;SDS011;64015;49.392;15.582;2024-01-07T04:50:01;6.40;;;3.78;;
75437;SDS011;64015;49.392;15.582;2024-01-07T04:52:28;5.22;;;2.85;;
75437;SDS011;64015;49.392;15.582;2024-01-07T04:54:54;10.98;;;4.63;;
75437;SDS011;64015;49.392;15.582;2024-01-07T04:57:21;6.15;;;3.47;;
75437;SDS011;64015;49.392;15.582;2024-01-07T05:00:05;7.53;;;3.58;;
75437;SDS011;64015;49.392;15.582;2024-01-07T05:02:31;7.35;;;3.60;;
75437;SDS011;64015;49.392;15.582;2024-01-07T05:04:57;7.38;;;3.92;;
75437;SDS011;64015;49.392;15.582;2024-01-07T05:07:23;7.30;;;3.85;;
75437;SDS011;64015;49.392;15.582;2024-01-07T05:09:48;6.72;;;3.30;;
75437;SDS011;64015;49.392;15.582;2024-01-07T05:12:14;7.25;;;3.55;;
75437;SDS011;64015;49.392;15.582;2024-01-07T05:14:40;6.28;;;3.35;;
75437;SDS011;64015;49.392;15.582;2024-01-07T05:17:08;7.93;;;3.78;;
75437;SDS011;64015;49.392;15.582;2024-01-07T05:19:34;10.63;;;3.58;;
75437;SDS011;64015;49.392;15.582;2024-01-07T05:22:00;6.65;;;3.47;;
75437;SDS011;64015;49.392;15.582;2024-01-07T05:24:26;7.18;;;3.53;;
75437;SDS011;64015;49.392;15.582;2024-01-07T05:26:52;9.48;;;4.05;;
75437;SDS011;64015;49.392;15.582;2024-01-07T05:29:18;10.18;;;4.25;;
75437;SDS011;64015;49.392;15.582;2024-01-07T05:31:47;9.30;;;4.88;;
75437;SDS011;64015;49.392;15.582;2024-01-07T05:34:12;8.40;;;4.22;;
75437;SDS011;64015;49.392;15.582;2024-01-07T05:36:38;6.55;;;3.00;;
75437;SDS011;64015;49.392;15.582;2024-01-07T05:39:03;10.85;;;4.68;;
75437;SDS011;64015;49.392;15.582;2024-01-07T05:41:37;8.93;;;4.15;;
75437;SDS011;64015;49.392;15.582;2024-01-07T05:44:06;9.75;;;4.47;;
75437;SDS011;64015;49.392;15.582;2024-01-07T05:46:33;6.93;;;3.95;;
75437;SDS011;64015;49.392;15.582;2024-01-07T05:48:59;9.55;;;4.43;;
75437;SDS011;64015;49.392;15.582;2024-01-07T05:51:25;10.02;;;5.18;;
75437;SDS011;64015;49.392;15.582;2024-01-07T05:53:57;7.22;;;4.47;;
75437;SDS011;64015;49.392;15.582;2024-01-07T05:56:23;8.38;;;4.40;;
75437;SDS011;64015;49.392;15.582;2024-01-07T05:58:49;7.85;;;3.88;;
75437;SDS011;64015;49.392;15.582;2024-01-07T06:01:18;8.68;;;3.88;;
75437;SDS011;64015;49.392;15.582;2024-01-07T06:03:45;9.13;;;4.07;;
75437;SDS011;64015;49.392;15.582;2024-01-07T06:06:18;9.23;;;4.68;;
75437;SDS011;64015;49.392;15.582;2024-01-07T06:08:43;8.38;;;4.40;;
75437;SDS011;64015;49.392;15.582;2024-01-07T06:11:09;10.18;;;4.45;;
75437;SDS011;64015;49.392;15.582;2024-01-07T06:13:37;10.40;;;4.53;;
75437;SDS011;64015;49.392;15.582;2024-01-07T06:16:03;7.60;;;4.35;;
75437;SDS011;64015;49.392;15.582;2024-01-07T06:18:29;9.50;;;4.38;;
75437;SDS011;64015;49.392;15.582;2024-01-07T06:20:55;13.10;;;4.93;;
75437;SDS011;64015;49.392;15.582;2024-01-07T06:23:21;9.30;;;4.43;;
75437;SDS011;64015;49.392;15.582;2024-01-07T06:29:28;9.32;;;4.60;;
75437;SDS011;64015;49.392;15.582;2024-01-07T06:31:54;8.07;;;3.97;;
75437;SDS011;64015;49.392;15.582;2024-01-07T06:38:03;8.27;;;4.32;;
75437;SDS011;64015;49.392;15.582;2024-01-07T06:40:29;9.57;;;4.85;;
75437;SDS011;64015;49.392;15.582;2024-01-07T06:42:55;4.85;;;3.22;;
75437;SDS011;64015;49.392;15.582;2024-01-07T06:45:31;10.63;;;4.80;;
75437;SDS011;64015;49.392;15.582;2024-01-07T06:47:56;8.48;;;4.93;;
75437;SDS011;64015;49.392;15.582;2024-01-07T06:50:23;10.52;;;4.97;;
75437;SDS011;64015;49.392;15.582;2024-01-07T06:52:49;7.25;;;3.97;;
75437;SDS011;64015;49.392;15.582;2024-01-07T06:55:15;8.55;;;4.82;;
75437;SDS011;64015;49.392;15.582;2024-01-07T06:57:52;10.63;;;4.38;;
75437;SDS011;64015;49.392;15.582;2024-01-07T07:00:27;9.50;;;4.18;;
75437;SDS011;64015;49.392;15.582;2024-01-07T07:02:53;11.23;;;5.43;;
75437;SDS011;64015;49.392;15.582;2024-01-07T07:05:19;10.05;;;4.78;;
75437;SDS011;64015;49.392;15.582;2024-01-07T07:07:45;5.68;;;3.97;;
75437;SDS011;64015;49.392;15.582;2024-01-07T07:10:11;8.52;;;4.70;;
75437;SDS011;64015;49.392;15.582;2024-01-07T07:12:36;8.73;;;4.03;;
75437;SDS011;64015;49.392;15.582;2024-01-07T07:15:02;8.52;;;5.07;;
75437;SDS011;64015;49.392;15.582;2024-01-07T07:17:28;11.32;;;4.32;;
75437;SDS011;64015;49.392;15.582;2024-01-07T07:19:54;9.30;;;4.50;;
75437;SDS011;64015;49.392;15.582;2024-01-07T07:22:23;9.30;;;4.75;;
75437;SDS011;64015;49.392;15.582;2024-01-07T07:24:49;9.57;;;4.38;;
75437;SDS011;64015;49.392;15.582;2024-01-07T07:27:22;9.05;;;4.18;;
75437;SDS011;64015;49.392;15.582;2024-01-07T07:29:48;11.15;;;5.10;;
75437;SDS011;64015;49.392;15.582;2024-01-07T07:32:13;13.80;;;6.57;;
75437;SDS011;64015;49.392;15.582;2024-01-07T07:34:39;8.35;;;3.88;;
75437;SDS011;64015;49.392;15.582;2024-01-07T07:37:04;11.55;;;4.43;;
75437;SDS011;64015;49.392;15.582;2024-01-07T07:39:30;9.02;;;5.57;;
75437;SDS011;64015;49.392;15.582;2024-01-07T07:41:56;8.32;;;3.88;;
75437;SDS011;64015;49.392;15.582;2024-01-07T07:44:22;7.15;;;4.60;;
75437;SDS011;64015;49.392;15.582;2024-01-07T07:46:47;8.48;;;4.57;;
75437;SDS011;64015;49.392;15.582;2024-01-07T07:49:13;14.05;;;4.80;;
75437;SDS011;64015;49.392;15.582;2024-01-07T07:51:39;8.85;;;4.35;;
75437;SDS011;64015;49.392;15.582;2024-01-07T07:54:05;8.13;;;4.00;;
75437;SDS011;64015;49.392;15.582;2024-01-07T07:56:31;8.10;;;4.20;;
75437;SDS011;64015;49.392;15.582;2024-01-07T07:59:12;8.00;;;3.88;;
75437;SDS011;64015;49.392;15.582;2024-01-07T08:01:37;9.55;;;5.22;;
75437;SDS011;64015;49.392;15.582;2024-01-07T08:04:05;10.55;;;5.22;;
75437;SDS011;64015;49.392;15.582;2024-01-07T08:06:31;10.27;;;4.30;;
75437;SDS011;64015;49.392;15.582;2024-01-07T08:08:57;8.35;;;3.45;;
75437;SDS011;64015;49.392;15.582;2024-01-07T08:11:28;9.77;;;4.38;;
75437;SDS011;64015;49.392;15.582;2024-01-07T08:14:02;12.57;;;6.03;;
75437;SDS011;64015;49.392;15.582;2024-01-07T08:16:27;13.02;;;5.72;;
75437;SDS011;64015;49.392;15.582;2024-01-07T08:18:53;9.68;;;4.65;;
75437;SDS011;64015;49.392;15.582;2024-01-07T08:21:22;11.70;;;5.07;;
75437;SDS011;64015;49.392;15.582;2024-01-07T08:23:50;10.63;;;4.85;;
75437;SDS011;64015;49.392;15.582;2024-01-07T08:26:19;9.13;;;5.28;;
75437;SDS011;64015;49.392;15.582;2024-01-07T08:28:54;12.77;;;5.90;;
75437;SDS011;64015;49.392;15.582;2024-01-07T08:31:20;13.07;;;6.50;;
75437;SDS011;64015;49.392;15.582;2024-01-07T08:33:46;12.13;;;5.82;;
75437;SDS011;64015;49.392;15.582;2024-01-07T08:36:11;13.82;;;7.20;;
75437;SDS011;64015;49.392;15.582;2024-01-07T08:38:37;10.75;;;5.85;;
75437;SDS011;64015;49.392;15.582;2024-01-07T08:41:03;7.68;;;3.90;;
75437;SDS011;64015;49.392;15.582;2024-01-07T08:43:38;8.55;;;4.78;;
75437;SDS011;64015;49.392;15.582;2024-01-07T08:46:04;8.07;;;4.38;;
75437;SDS011;64015;49.392;15.582;2024-01-07T08:48:33;10.80;;;4.97;;
75437;SDS011;64015;49.392;15.582;2024-01-07T08:50:58;9.75;;;4.63;;
75437;SDS011;64015;49.392;15.582;2024-01-07T08:53:24;13.30;;;5.13;;
75437;SDS011;64015;49.392;15.582;2024-01-07T08:55:50;8.32;;;4.57;;
75437;SDS011;64015;49.392;15.582;2024-01-07T08:58:16;9.63;;;4.85;;
75437;SDS011;64015;49.392;15.582;2024-01-07T09:00:42;9.18;;;4.72;;
75437;SDS011;64015;49.392;15.582;2024-01-07T09:03:09;7.78;;;4.40;;
75437;SDS011;64015;49.392;15.582;2024-01-07T09:05:35;10.25;;;5.10;;
75437;SDS011;64015;49.392;15.582;2024-01-07T09:08:11;12.02;;;5.40;;
75437;SDS011;64015;49.392;15.582;2024-01-07T09:10:51;8.45;;;4.50;;
75437;SDS011;64015;49.392;15.582;2024-01-07T09:13:20;10.30;;;5.45;;
75437;SDS011;64015;49.392;15.582;2024-01-07T09:15:46;11.13;;;5.07;;
75437;SDS011;64015;49.392;15.582;2024-01-07T09:18:15;10.73;;;5.13;;
75437;SDS011;64015;49.392;15.582;2024-01-07T09:20:41;10.98;;;4.97;;
75437;SDS011;64015;49.392;15.582;2024-01-07T09:23:07;11.98;;;5.22;;
75437;SDS011;64015;49.392;15.582;2024-01-07T09:25:32;8.82;;;5.07;;
75437;SDS011;64015;49.392;15.582;2024-01-07T09:27:58;12.13;;;5.55;;
75437;SDS011;64015;49.392;15.582;2024-01-07T09:30:23;10.05;;;4.85;;
75437;SDS011;64015;49.392;15.582;2024-01-07T09:32:50;9.45;;;4.68;;
75437;SDS011;64015;49.392;15.582;2024-01-07T09:35:15;9.75;;;4.55;;
75437;SDS011;64015;49.392;15.582;2024-01-07T09:37:41;13.48;;;4.97;;
75437;SDS011;64015;49.392;15.582;2024-01-07T09:40:19;13.07;;;5.60;;
75437;SDS011;64015;49.392;15.582;2024-01-07T09:42:45;14.05;;;6.43;;
75437;SDS011;64015;49.392;15.582;2024-01-07T09:45:12;10.85;;;5.15;;
75437;SDS011;64015;49.392;15.582;2024-01-07T09:47:39;9.55;;;5.03;;
75437;SDS011;64015;49.392;15.582;2024-01-07T09:50:09;7.50;;;2.88;;
75437;SDS011;64015;49.392;15.582;2024-01-07T09:52:51;10.32;;;4.40;;
75437;SDS011;64015;49.392;15.582;2024-01-07T09:55:26;10.25;;;4.55;;
75437;SDS011;64015;49.392;15.582;2024-01-07T09:57:56;8.85;;;4.82;;
75437;SDS011;64015;49.392;15.582;2024-01-07T10:03:20;7.80;;;4.05;;
75437;SDS011;64015;49.392;15.582;2024-01-07T10:05:52;9.88;;;4.50;;
75437;SDS011;64015;49.392;15.582;2024-01-07T10:08:18;9.50;;;4.30;;
75437;SDS011;64015;49.392;15.582;2024-01-07T10:10:45;8.65;;;4.45;;
75437;SDS011;64015;49.392;15.582;2024-01-07T10:13:14;22.35;;;8.18;;
75437;SDS011;64015;49.392;15.582;2024-01-07T10:15:40;26.13;;;8.73;;
75437;SDS011;64015;49.392;15.582;2024-01-07T10:18:07;16.50;;;6.07;;
75437;SDS011;64015;49.392;15.582;2024-01-07T10:20:33;10.50;;;5.72;;
75437;SDS011;64015;49.392;15.582;2024-01-07T10:23:03;7.22;;;4.05;;
75437;SDS011;64015;49.392;15.582;2024-01-07T10:25:32;11.23;;;4.70;;
75437;SDS011;64015;49.392;15.582;2024-01-07T10:27:59;13.50;;;6.18;;
75437;SDS011;64015;49.392;15.582;2024-01-07T10:30:26;12.50;;;5.90;;
75437;SDS011;64015;49.392;15.582;2024-01-07T10:32:59;9.07;;;5.03;;
75437;SDS011;64015;49.392;15.582;2024-01-07T10:35:32;9.75;;;4.40;;
75437;SDS011;64015;49.392;15.582;2024-01-07T10:37:59;10.23;;;5.72;;
75437;SDS011;64015;49.392;15.582;2024-01-07T10:43:24;11.48;;;4.88;;
75437;SDS011;64015;49.392;15.582;2024-01-07T10:45:59;8.98;;;5.22;;
75437;SDS011;64015;49.392;15.582;2024-01-07T10:51:40;8.75;;;5.18;;
75437;SDS011;64015;49.392;15.582;2024-01-07T10:54:08;7.20;;;4.13;;
75437;SDS011;64015;49.392;15.582;2024-01-07T10:56:44;11.63;;;5.05;;
75437;SDS011;64015;49.392;15.582;2024-01-07T10:59:14;10.70;;;4.63;;
75437;SDS011;64015;49.392;15.582;2024-01-07T11:01:49;10.88;;;5.30;;
75437;SDS011;64015;49.392;15.582;2024-01-07T11:04:23;10.25;;;5.43;;
75437;SDS011;64015;49.392;15.582;2024-01-07T11:07:19;8.98;;;4.68;;
75437;SDS011;64015;49.392;15.582;2024-01-07T11:10:16;14.48;;;5.18;;
75437;SDS011;64015;49.392;15.582;2024-01-07T11:13:01;7.45;;;3.08;;
75437;SDS011;64015;49.392;15.582;2024-01-07T11:18:37;8.05;;;4.13;;
75437;SDS011;64015;49.392;15.582;2024-01-07T11:21:21;7.03;;;4.07;;
75437;SDS011;64015;49.392;15.582;2024-01-07T11:23:50;10.20;;;5.75;;
75437;SDS011;64015;49.392;15.582;2024-01-07T11:26:21;11.20;;;6.05;;
75437;SDS011;64015;49.392;15.582;2024-01-07T11:28:54;8.20;;;4.88;;
75437;SDS011;64015;49.392;15.582;2024-01-07T11:34:04;10.65;;;5.15;;
75437;SDS011;64015;49.392;15.582;2024-01-07T11:36:32;8.32;;;4.57;;
75437;SDS011;64015;49.392;15.582;2024-01-07T11:39:00;11.18;;;5.85;;
75437;SDS011;64015;49.392;15.582;2024-01-07T11:41:27;9.07;;;4.28;;
75437;SDS011;64015;49.392;15.582;2024-01-07T11:43:57;10.77;;;5.15;;
75437;SDS011;64015;49.392;15.582;2024-01-07T11:46:33;12.90;;;5.50;;
75437;SDS011;64015;49.392;15.582;2024-01-07T11:49:00;10.65;;;5.78;;
75437;SDS011;64015;49.392;15.582;2024-01-07T11:54:05;7.68;;;4.70;;
75437;SDS011;64015;49.392;15.582;2024-01-07T11:56:32;10.98;;;4.95;;
75437;SDS011;64015;49.392;15.582;2024-01-07T11:58:58;10.77;;;5.88;;
75437;SDS011;64015;49.392;15.582;2024-01-07T12:01:26;9.82;;;5.28;;
75437;SDS011;64015;49.392;15.582;2024-01-07T12:03:52;7.20;;;3.63;;
75437;SDS011;64015;49.392;15.582;2024-01-07T12:06:18;9.25;;;5.18;;
75437;SDS011;64015;49.392;15.582;2024-01-07T12:08:45;11.15;;;5.70;;
75437;SDS011;64015;49.392;15.582;2024-01-07T12:11:26;9.32;;;5.45;;
75437;SDS011;64015;49.392;15.582;2024-01-07T12:13:56;9.05;;;4.78;;
75437;SDS011;64015;49.392;15.582;2024-01-07T12:16:22;8.27;;;4.97;;
75437;SDS011;64015;49.392;15.582;2024-01-07T12:18:48;14.52;;;5.38;;
75437;SDS011;64015;49.392;15.582;2024-01-07T12:21:18;10.52;;;5.90;;
75437;SDS011;64015;49.392;15.582;2024-01-07T12:23:55;8.60;;;4.93;;
75437;SDS011;64015;49.392;15.582;2024-01-07T12:26:26;8.50;;;4.60;;
75437;SDS011;64015;49.392;15.582;2024-01-07T12:32:31;10.82;;;5.57;;
75437;SDS011;64015;49.392;15.582;2024-01-07T12:34:57;11.65;;;5.63;;
75437;SDS011;64015;49.392;15.582;2024-01-07T12:37:31;9.93;;;5.10;;
75437;SDS011;64015;49.392;15.582;2024-01-07T12:40:01;15.18;;;6.30;;
75437;SDS011;64015;49.392;15.582;2024-01-07T12:42:30;11.38;;;6.40;;
75437;SDS011;64015;49.392;15.582;2024-01-07T12:45:01;12.93;;;7.07;;
75437;SDS011;64015;49.392;15.582;2024-01-07T12:47:37;13.15;;;6.22;;
75437;SDS011;64015;49.392;15.582;2024-01-07T12:50:20;12.13;;;6.57;;
75437;SDS011;64015;49.392;15.582;2024-01-07T12:53:04;10.20;;;6.22;;
75437;SDS011;64015;49.392;15.582;2024-01-07T12:55:30;11.50;;;6.07;;
75437;SDS011;64015;49.392;15.582;2024-01-07T12:57:59;11.68;;;6.60;;
75437;SDS011;64015;49.392;15.582;2024-01-07T13:07:57;21.60;;;6.85;;
75437;SDS011;64015;49.392;15.582;2024-01-07T13:10:31;14.18;;;7.05;;
75437;SDS011;64015;49.392;15.582;2024-01-07T13:16:38;11.60;;;6.53;;
75437;SDS011;64015;49.392;15.582;2024-01-07T13:19:07;12.23;;;6.53;;
75437;SDS011;64015;49.392;15.582;2024-01-07T13:24:41;13.15;;;6.22;;
75437;SDS011;64015;49.392;15.582;2024-01-07T13:27:07;15.57;;;7.40;;
75437;SDS011;64015;49.392;15.582;2024-01-07T13:33:45;13.05;;;6.53;;
75437;SDS011;64015;49.392;15.582;2024-01-07T13:36:12;10.45;;;5.75;;
75437;SDS011;64015;49.392;15.582;2024-01-07T13:39:08;13.38;;;6.13;;
75437;SDS011;64015;49.392;15.582;2024-01-07T13:53:34;12.18;;;7.15;;
75437;SDS011;64015;49.392;15.582;2024-01-07T13:56:03;13.73;;;6.78;;
75437;SDS011;64015;49.392;15.582;2024-01-07T14:01:40;16.58;;;7.95;;
75437;SDS011;64015;49.392;15.582;2024-01-07T14:04:09;14.27;;;6.88;;
75437;SDS011;64015;49.392;15.582;2024-01-07T14:06:57;12.45;;;6.22;;
75437;SDS011;64015;49.392;15.582;2024-01-07T14:09:29;9.63;;;5.93;;
75437;SDS011;64015;49.392;15.582;2024-01-07T14:14:59;15.88;;;6.72;;
75437;SDS011;64015;49.392;15.582;2024-01-07T14:17:58;11.35;;;5.82;;
75437;SDS011;64015;49.392;15.582;2024-01-07T14:20:27;11.50;;;6.38;;
75437;SDS011;64015;49.392;15.582;2024-01-07T14:23:06;11.77;;;5.55;;
75437;SDS011;64015;49.392;15.582;2024-01-07T14:25:40;8.60;;;5.28;;
75437;SDS011;64015;49.392;15.582;2024-01-07T14:31:17;12.80;;;5.30;;
75437;SDS011;64015;49.392;15.582;2024-01-07T14:34:07;14.63;;;6.63;;
75437;SDS011;64015;49.392;15.582;2024-01-07T14:36:41;8.48;;;5.00;;
75437;SDS011;64015;49.392;15.582;2024-01-07T14:39:31;14.10;;;6.15;;
75437;SDS011;64015;49.392;15.582;2024-01-07T14:41:57;10.13;;;5.93;;
75437;SDS011;64015;49.392;15.582;2024-01-07T14:44:23;8.13;;;4.43;;
75437;SDS011;64015;49.392;15.582;2024-01-07T14:46:49;8.40;;;4.90;;
75437;SDS011;64015;49.392;15.582;2024-01-07T14:49:30;14.18;;;6.43;;
75437;SDS011;64015;49.392;15.582;2024-01-07T15:01:12;8.10;;;4.10;;
75437;SDS011;64015;49.392;15.582;2024-01-07T15:03:39;9.18;;;4.22;;
75437;SDS011;64015;49.392;15.582;2024-01-07T15:06:06;8.32;;;4.00;;
75437;SDS011;64015;49.392;15.582;2024-01-07T15:21:34;10.95;;;4.85;;
75437;SDS011;64015;49.392;15.582;2024-01-07T15:24:30;9.70;;;4.45;;
75437;SDS011;64015;49.392;15.582;2024-01-07T15:26:56;9.38;;;4.13;;
75437;SDS011;64015;49.392;15.582;2024-01-07T15:30:02;8.68;;;3.90;;
75437;SDS011;64015;49.392;15.582;2024-01-07T15:32:45;6.47;;;3.22;;
75437;SDS011;64015;49.392;15.582;2024-01-07T15:35:12;7.32;;;3.47;;
75437;SDS011;64015;49.392;15.582;2024-01-07T15:37:40;6.45;;;3.00;;
75437;SDS011;64015;49.392;15.582;2024-01-07T15:40:28;5.70;;;2.85;;
75437;SDS011;64015;49.392;15.582;2024-01-07T15:42:55;14.82;;;5.28;;
75437;SDS011;64015;49.392;15.582;2024-01-07T15:45:25;7.18;;;3.28;;
75437;SDS011;64015;49.392;15.582;2024-01-07T15:47:56;7.97;;;3.15;;
75437;SDS011;64015;49.392;15.582;2024-01-07T15:50:22;16.38;;;6.72;;
75437;SDS011;64015;49.392;15.582;2024-01-07T15:52:48;9.55;;;4.47;;
75437;SDS011;64015;49.392;15.582;2024-01-07T15:55:15;6.40;;;3.55;;
75437;SDS011;64015;49.392;15.582;2024-01-07T15:57:59;9.73;;;4.78;;
75437;SDS011;64015;49.392;15.582;2024-01-07T16:00:25;7.97;;;4.05;;
75437;SDS011;64015;49.392;15.582;2024-01-07T16:02:51;8.93;;;4.28;;
75437;SDS011;64015;49.392;15.582;2024-01-07T16:07:48;9.93;;;3.97;;
75437;SDS011;64015;49.392;15.582;2024-01-07T16:10:20;9.30;;;3.53;;
75437;SDS011;64015;49.392;15.582;2024-01-07T16:20:51;6.28;;;2.97;;